sensor_id;sensor_type;location;lat;lon;timestamp;temperature;humidity
18365;DHT22;9309;52.126;11.616;2024-01-30T00:00:24;2.00;87.40
18365;DHT22;9309;52.126;11.616;2024-01-30T00:02:52;1.90;88.80
18365;DHT22;9309;52.126;11.616;2024-01-30T00:05:19;2.00;88.00
18365;DHT22;9309;52.126;11.616;2024-01-30T00:07:46;2.00;87.90
18365;DHT22;9309;52.126;11.616;2024-01-30T00:10:13;2.00;87.80
18365;DHT22;9309;52.126;11.616;2024-01-30T00:12:40;2.10;87.40
18365;DHT22;9309;52.126;11.616;2024-01-30T00:15:07;2.20;87.30
18365;DHT22;9309;52.126;11.616;2024-01-30T00:17:35;2.20;86.90
18365;DHT22;9309;52.126;11.616;2024-01-30T00:20:04;2.00;87.30
18365;DHT22;9309;52.126;11.616;2024-01-30T00:22:31;1.90;89.00
18365;DHT22;9309;52.126;11.616;2024-01-30T00:24:58;1.90;88.20
18365;DHT22;9309;52.126;11.616;2024-01-30T00:27:26;2.00;87.60
18365;DHT22;9309;52.126;11.616;2024-01-30T00:29:53;2.10;87.70
18365;DHT22;9309;52.126;11.616;2024-01-30T00:32:20;2.10;87.20
18365;DHT22;9309;52.126;11.616;2024-01-30T00:34:48;2.10;87.10
18365;DHT22;9309;52.126;11.616;2024-01-30T00:37:16;2.20;87.20
18365;DHT22;9309;52.126;11.616;2024-01-30T00:39:43;2.20;86.50
18365;DHT22;9309;52.126;11.616;2024-01-30T00:42:09;2.10;86.90
18365;DHT22;9309;52.126;11.616;2024-01-30T00:44:36;2.20;86.60
18365;DHT22;9309;52.126;11.616;2024-01-30T00:47:04;2.20;86.10
18365;DHT22;9309;52.126;11.616;2024-01-30T00:49:31;2.10;86.00
18365;DHT22;9309;52.126;11.616;2024-01-30T00:51:58;2.10;86.80
18365;DHT22;9309;52.126;11.616;2024-01-30T00:54:26;2.20;86.70
18365;DHT22;9309;52.126;11.616;2024-01-30T00:56:52;1.90;88.20
18365;DHT22;9309;52.126;11.616;2024-01-30T00:59:19;2.00;88.20
18365;DHT22;9309;52.126;11.616;2024-01-30T01:01:46;1.90;87.80
18365;DHT22;9309;52.126;11.616;2024-01-30T01:04:13;2.00;87.60
18365;DHT22;9309;52.126;11.616;2024-01-30T01:06:39;1.90;87.60
18365;DHT22;9309;52.126;11.616;2024-01-30T01:09:08;2.00;87.70
18365;DHT22;9309;52.126;11.616;2024-01-30T01:11:36;2.00;87.00
18365;DHT22;9309;52.126;11.616;2024-01-30T01:14:03;1.90;86.60
18365;DHT22;9309;52.126;11.616;2024-01-30T01:16:30;1.80;87.40
18365;DHT22;9309;52.126;11.616;2024-01-30T01:18:57;1.80;87.80
18365;DHT22;9309;52.126;11.616;2024-01-30T01:21:25;1.90;87.00
18365;DHT22;9309;52.126;11.616;2024-01-30T01:23:52;1.90;86.90
18365;DHT22;9309;52.126;11.616;2024-01-30T01:26:19;1.90;87.00
18365;DHT22;9309;52.126;11.616;2024-01-30T01:28:48;1.90;87.30
18365;DHT22;9309;52.126;11.616;2024-01-30T01:31:14;2.00;87.00
18365;DHT22;9309;52.126;11.616;2024-01-30T01:33:43;1.90;86.80
18365;DHT22;9309;52.126;11.616;2024-01-30T01:36:09;1.80;87.10
18365;DHT22;9309;52.126;11.616;2024-01-30T01:38:36;1.90;87.20
18365;DHT22;9309;52.126;11.616;2024-01-30T01:41:03;2.00;86.70
18365;DHT22;9309;52.126;11.616;2024-01-30T01:43:30;1.80;86.60
18365;DHT22;9309;52.126;11.616;2024-01-30T01:45:58;1.80;87.10
18365;DHT22;9309;52.126;11.616;2024-01-30T01:48:25;1.80;87.30
18365;DHT22;9309;52.126;11.616;2024-01-30T01:50:52;1.80;87.10
18365;DHT22;9309;52.126;11.616;2024-01-30T01:53:19;1.40;89.30
18365;DHT22;9309;52.126;11.616;2024-01-30T01:55:47;1.20;90.60
18365;DHT22;9309;52.126;11.616;2024-01-30T01:58:14;1.10;90.90
18365;DHT22;9309;52.126;11.616;2024-01-30T02:00:41;1.20;91.00
18365;DHT22;9309;52.126;11.616;2024-01-30T02:03:10;1.50;89.20
18365;DHT22;9309;52.126;11.616;2024-01-30T02:05:38;1.50;88.50
18365;DHT22;9309;52.126;11.616;2024-01-30T02:08:06;1.30;90.30
18365;DHT22;9309;52.126;11.616;2024-01-30T02:10:33;1.30;90.80
18365;DHT22;9309;52.126;11.616;2024-01-30T02:12:59;1.40;91.10
18365;DHT22;9309;52.126;11.616;2024-01-30T02:15:26;1.60;90.20
18365;DHT22;9309;52.126;11.616;2024-01-30T02:17:54;1.70;89.30
18365;DHT22;9309;52.126;11.616;2024-01-30T02:20:25;1.70;89.20
18365;DHT22;9309;52.126;11.616;2024-01-30T02:22:54;1.80;88.90
18365;DHT22;9309;52.126;11.616;2024-01-30T02:25:30;1.80;88.70
18365;DHT22;9309;52.126;11.616;2024-01-30T02:27:57;1.90;88.20
18365;DHT22;9309;52.126;11.616;2024-01-30T02:30:23;1.90;87.20
18365;DHT22;9309;52.126;11.616;2024-01-30T02:32:50;1.90;86.60
18365;DHT22;9309;52.126;11.616;2024-01-30T02:35:17;1.80;87.20
18365;DHT22;9309;52.126;11.616;2024-01-30T02:37:44;1.80;87.60
18365;DHT22;9309;52.126;11.616;2024-01-30T02:40:12;1.80;87.10
18365;DHT22;9309;52.126;11.616;2024-01-30T02:42:39;1.70;87.70
18365;DHT22;9309;52.126;11.616;2024-01-30T02:45:08;1.80;87.90
18365;DHT22;9309;52.126;11.616;2024-01-30T02:47:35;1.80;87.30
18365;DHT22;9309;52.126;11.616;2024-01-30T02:50:02;1.50;88.50
18365;DHT22;9309;52.126;11.616;2024-01-30T02:52:29;1.60;88.60
18365;DHT22;9309;52.126;11.616;2024-01-30T02:54:56;1.60;87.90
18365;DHT22;9309;52.126;11.616;2024-01-30T03:01:11;1.60;88.00
18365;DHT22;9309;52.126;11.616;2024-01-30T03:03:38;1.50;88.80
18365;DHT22;9309;52.126;11.616;2024-01-30T03:06:06;1.50;88.60
18365;DHT22;9309;52.126;11.616;2024-01-30T03:08:33;1.40;88.90
18365;DHT22;9309;52.126;11.616;2024-01-30T03:11:00;1.30;89.60
18365;DHT22;9309;52.126;11.616;2024-01-30T03:13:27;1.40;89.30
18365;DHT22;9309;52.126;11.616;2024-01-30T03:15:54;1.40;88.80
18365;DHT22;9309;52.126;11.616;2024-01-30T03:18:22;1.60;88.50
18365;DHT22;9309;52.126;11.616;2024-01-30T03:20:49;1.60;88.40
18365;DHT22;9309;52.126;11.616;2024-01-30T03:23:15;1.50;88.50
18365;DHT22;9309;52.126;11.616;2024-01-30T03:25:42;1.30;89.10
18365;DHT22;9309;52.126;11.616;2024-01-30T03:28:09;1.40;89.30
18365;DHT22;9309;52.126;11.616;2024-01-30T03:30:36;1.30;89.90
18365;DHT22;9309;52.126;11.616;2024-01-30T03:33:03;1.40;89.60
18365;DHT22;9309;52.126;11.616;2024-01-30T03:35:31;1.50;89.20
18365;DHT22;9309;52.126;11.616;2024-01-30T03:37:57;1.50;89.10
18365;DHT22;9309;52.126;11.616;2024-01-30T03:40:24;1.50;89.50
18365;DHT22;9309;52.126;11.616;2024-01-30T03:42:51;1.30;89.90
18365;DHT22;9309;52.126;11.616;2024-01-30T03:45:17;1.40;90.10
18365;DHT22;9309;52.126;11.616;2024-01-30T03:47:45;1.10;90.90
18365;DHT22;9309;52.126;11.616;2024-01-30T03:50:11;1.30;90.10
18365;DHT22;9309;52.126;11.616;2024-01-30T03:52:40;1.30;90.20
18365;DHT22;9309;52.126;11.616;2024-01-30T03:55:07;1.40;89.00
18365;DHT22;9309;52.126;11.616;2024-01-30T03:57:34;1.40;89.00
18365;DHT22;9309;52.126;11.616;2024-01-30T04:00:01;1.40;89.90
18365;DHT22;9309;52.126;11.616;2024-01-30T04:02:37;1.30;90.20
18365;DHT22;9309;52.126;11.616;2024-01-30T04:05:05;1.40;90.90
18365;DHT22;9309;52.126;11.616;2024-01-30T04:07:32;1.50;90.50
18365;DHT22;9309;52.126;11.616;2024-01-30T04:10:00;1.50;90.10
18365;DHT22;9309;52.126;11.616;2024-01-30T04:12:27;1.50;90.30
18365;DHT22;9309;52.126;11.616;2024-01-30T04:14:53;1.60;90.30
18365;DHT22;9309;52.126;11.616;2024-01-30T04:17:20;1.50;90.30
18365;DHT22;9309;52.126;11.616;2024-01-30T04:19:47;1.70;90.00
18365;DHT22;9309;52.126;11.616;2024-01-30T04:22:13;1.70;89.80
18365;DHT22;9309;52.126;11.616;2024-01-30T04:24:40;1.80;89.00
18365;DHT22;9309;52.126;11.616;2024-01-30T04:27:08;1.70;89.10
18365;DHT22;9309;52.126;11.616;2024-01-30T04:29:35;1.60;88.70
18365;DHT22;9309;52.126;11.616;2024-01-30T04:32:02;1.50;90.00
18365;DHT22;9309;52.126;11.616;2024-01-30T04:34:29;1.30;90.80
18365;DHT22;9309;52.126;11.616;2024-01-30T04:36:56;1.50;90.70
18365;DHT22;9309;52.126;11.616;2024-01-30T04:39:23;1.70;88.90
18365;DHT22;9309;52.126;11.616;2024-01-30T04:41:50;1.70;88.20
18365;DHT22;9309;52.126;11.616;2024-01-30T04:44:19;1.60;88.60
18365;DHT22;9309;52.126;11.616;2024-01-30T04:46:45;1.70;88.10
18365;DHT22;9309;52.126;11.616;2024-01-30T04:49:12;1.80;87.80
18365;DHT22;9309;52.126;11.616;2024-01-30T04:51:39;1.70;87.70
18365;DHT22;9309;52.126;11.616;2024-01-30T04:54:06;1.40;89.40
18365;DHT22;9309;52.126;11.616;2024-01-30T04:56:32;1.40;90.50
18365;DHT22;9309;52.126;11.616;2024-01-30T04:58:59;1.50;90.10
18365;DHT22;9309;52.126;11.616;2024-01-30T05:01:28;1.50;90.20
18365;DHT22;9309;52.126;11.616;2024-01-30T05:03:54;1.60;89.90
18365;DHT22;9309;52.126;11.616;2024-01-30T05:06:24;1.80;89.20
18365;DHT22;9309;52.126;11.616;2024-01-30T05:08:51;1.70;88.30
18365;DHT22;9309;52.126;11.616;2024-01-30T05:11:18;1.40;90.50
18365;DHT22;9309;52.126;11.616;2024-01-30T05:13:45;1.50;90.60
18365;DHT22;9309;52.126;11.616;2024-01-30T05:16:12;1.60;89.70
18365;DHT22;9309;52.126;11.616;2024-01-30T05:18:40;1.70;89.40
18365;DHT22;9309;52.126;11.616;2024-01-30T05:21:06;1.80;88.70
18365;DHT22;9309;52.126;11.616;2024-01-30T05:23:33;1.60;89.40
18365;DHT22;9309;52.126;11.616;2024-01-30T05:26:00;1.60;89.90
18365;DHT22;9309;52.126;11.616;2024-01-30T05:28:28;1.60;91.20
18365;DHT22;9309;52.126;11.616;2024-01-30T05:30:55;1.60;91.50
18365;DHT22;9309;52.126;11.616;2024-01-30T05:33:22;1.70;90.30
18365;DHT22;9309;52.126;11.616;2024-01-30T05:35:50;1.70;91.50
18365;DHT22;9309;52.126;11.616;2024-01-30T05:38:19;1.80;90.70
18365;DHT22;9309;52.126;11.616;2024-01-30T05:40:46;1.90;89.90
18365;DHT22;9309;52.126;11.616;2024-01-30T05:43:13;1.90;89.90
18365;DHT22;9309;52.126;11.616;2024-01-30T05:45:40;1.80;90.30
18365;DHT22;9309;52.126;11.616;2024-01-30T05:48:07;1.70;91.60
18365;DHT22;9309;52.126;11.616;2024-01-30T05:50:33;1.70;91.70
18365;DHT22;9309;52.126;11.616;2024-01-30T05:53:01;1.70;91.70
18365;DHT22;9309;52.126;11.616;2024-01-30T05:55:28;1.90;90.80
18365;DHT22;9309;52.126;11.616;2024-01-30T05:57:55;1.90;90.00
18365;DHT22;9309;52.126;11.616;2024-01-30T06:00:22;1.90;90.00
18365;DHT22;9309;52.126;11.616;2024-01-30T06:06:35;1.80;91.00
18365;DHT22;9309;52.126;11.616;2024-01-30T06:09:03;1.90;90.10
18365;DHT22;9309;52.126;11.616;2024-01-30T06:11:30;1.80;90.00
18365;DHT22;9309;52.126;11.616;2024-01-30T06:13:57;1.90;90.60
18365;DHT22;9309;52.126;11.616;2024-01-30T06:16:23;1.90;90.30
18365;DHT22;9309;52.126;11.616;2024-01-30T06:18:54;1.80;90.40
18365;DHT22;9309;52.126;11.616;2024-01-30T06:21:21;1.80;91.00
18365;DHT22;9309;52.126;11.616;2024-01-30T06:23:48;1.80;90.90
18365;DHT22;9309;52.126;11.616;2024-01-30T06:26:16;1.80;92.00
18365;DHT22;9309;52.126;11.616;2024-01-30T06:28:43;1.80;91.30
18365;DHT22;9309;52.126;11.616;2024-01-30T06:31:10;1.90;91.00
18365;DHT22;9309;52.126;11.616;2024-01-30T06:33:36;1.90;90.80
18365;DHT22;9309;52.126;11.616;2024-01-30T06:36:04;1.90;90.70
18365;DHT22;9309;52.126;11.616;2024-01-30T06:38:30;1.90;91.30
18365;DHT22;9309;52.126;11.616;2024-01-30T06:40:57;1.90;91.00
18365;DHT22;9309;52.126;11.616;2024-01-30T06:43:25;1.90;90.90
18365;DHT22;9309;52.126;11.616;2024-01-30T06:45:52;1.80;91.10
18365;DHT22;9309;52.126;11.616;2024-01-30T06:48:18;1.90;90.80
18365;DHT22;9309;52.126;11.616;2024-01-30T06:50:45;1.90;90.30
18365;DHT22;9309;52.126;11.616;2024-01-30T06:53:13;1.90;90.50
18365;DHT22;9309;52.126;11.616;2024-01-30T06:55:40;1.80;91.00
18365;DHT22;9309;52.126;11.616;2024-01-30T06:58:07;1.90;90.40
18365;DHT22;9309;52.126;11.616;2024-01-30T07:00:35;1.90;89.70
18365;DHT22;9309;52.126;11.616;2024-01-30T07:03:01;1.60;90.80
18365;DHT22;9309;52.126;11.616;2024-01-30T07:05:28;1.50;91.80
18365;DHT22;9309;52.126;11.616;2024-01-30T07:07:55;1.70;92.00
18365;DHT22;9309;52.126;11.616;2024-01-30T07:10:21;1.70;91.30
18365;DHT22;9309;52.126;11.616;2024-01-30T07:12:48;1.80;91.30
18365;DHT22;9309;52.126;11.616;2024-01-30T07:15:15;1.90;90.50
18365;DHT22;9309;52.126;11.616;2024-01-30T07:17:46;1.90;89.80
18365;DHT22;9309;52.126;11.616;2024-01-30T07:20:13;1.80;89.60
18365;DHT22;9309;52.126;11.616;2024-01-30T07:22:40;1.60;90.80
18365;DHT22;9309;52.126;11.616;2024-01-30T07:25:07;1.70;91.50
18365;DHT22;9309;52.126;11.616;2024-01-30T07:27:34;1.90;90.40
18365;DHT22;9309;52.126;11.616;2024-01-30T07:30:01;1.90;90.30
18365;DHT22;9309;52.126;11.616;2024-01-30T07:32:28;2.00;90.10
18365;DHT22;9309;52.126;11.616;2024-01-30T07:34:56;2.10;89.50
18365;DHT22;9309;52.126;11.616;2024-01-30T07:37:22;2.20;89.30
18365;DHT22;9309;52.126;11.616;2024-01-30T07:39:50;2.20;89.20
18365;DHT22;9309;52.126;11.616;2024-01-30T07:42:17;2.20;89.00
18365;DHT22;9309;52.126;11.616;2024-01-30T07:44:44;2.20;88.80
18365;DHT22;9309;52.126;11.616;2024-01-30T07:47:10;2.10;90.30
18365;DHT22;9309;52.126;11.616;2024-01-30T07:49:37;2.30;89.90
18365;DHT22;9309;52.126;11.616;2024-01-30T07:52:05;2.30;90.40
18365;DHT22;9309;52.126;11.616;2024-01-30T07:54:33;2.20;90.90
18365;DHT22;9309;52.126;11.616;2024-01-30T07:57:00;2.00;92.60
18365;DHT22;9309;52.126;11.616;2024-01-30T07:59:27;2.10;92.60
18365;DHT22;9309;52.126;11.616;2024-01-30T08:01:54;2.40;92.00
18365;DHT22;9309;52.126;11.616;2024-01-30T08:04:20;2.40;90.90
18365;DHT22;9309;52.126;11.616;2024-01-30T08:06:47;2.40;91.50
18365;DHT22;9309;52.126;11.616;2024-01-30T08:09:15;2.40;91.60
18365;DHT22;9309;52.126;11.616;2024-01-30T08:11:42;2.60;91.50
18365;DHT22;9309;52.126;11.616;2024-01-30T08:14:09;2.60;91.50
18365;DHT22;9309;52.126;11.616;2024-01-30T08:16:36;2.80;91.20
18365;DHT22;9309;52.126;11.616;2024-01-30T08:19:03;3.00;90.30
18365;DHT22;9309;52.126;11.616;2024-01-30T08:21:29;3.20;89.40
18365;DHT22;9309;52.126;11.616;2024-01-30T08:24:02;3.30;88.60
18365;DHT22;9309;52.126;11.616;2024-01-30T08:28:57;3.80;87.10
18365;DHT22;9309;52.126;11.616;2024-01-30T08:31:24;4.10;85.00
18365;DHT22;9309;52.126;11.616;2024-01-30T08:33:51;4.20;84.30
18365;DHT22;9309;52.126;11.616;2024-01-30T08:36:18;4.40;83.40
18365;DHT22;9309;52.126;11.616;2024-01-30T08:38:44;4.50;82.80
18365;DHT22;9309;52.126;11.616;2024-01-30T08:41:11;5.00;81.90
18365;DHT22;9309;52.126;11.616;2024-01-30T08:43:39;6.30;79.60
18365;DHT22;9309;52.126;11.616;2024-01-30T08:46:06;7.50;71.20
18365;DHT22;9309;52.126;11.616;2024-01-30T08:48:33;7.50;70.60
18365;DHT22;9309;52.126;11.616;2024-01-30T08:50:59;7.50;69.80
18365;DHT22;9309;52.126;11.616;2024-01-30T08:53:26;7.30;70.40
18365;DHT22;9309;52.126;11.616;2024-01-30T08:55:52;7.20;71.00
18365;DHT22;9309;52.126;11.616;2024-01-30T08:58:19;7.20;71.00
18365;DHT22;9309;52.126;11.616;2024-01-30T09:00:47;7.20;71.00
18365;DHT22;9309;52.126;11.616;2024-01-30T09:03:14;8.10;69.50
18365;DHT22;9309;52.126;11.616;2024-01-30T09:05:41;9.20;65.50
18365;DHT22;9309;52.126;11.616;2024-01-30T09:08:07;9.20;64.10
18365;DHT22;9309;52.126;11.616;2024-01-30T09:10:34;8.70;66.00
18365;DHT22;9309;52.126;11.616;2024-01-30T09:13:01;9.50;63.60
18365;DHT22;9309;52.126;11.616;2024-01-30T09:15:28;9.40;62.50
18365;DHT22;9309;52.126;11.616;2024-01-30T09:17:56;8.30;66.40
18365;DHT22;9309;52.126;11.616;2024-01-30T09:20:23;7.80;68.10
18365;DHT22;9309;52.126;11.616;2024-01-30T09:22:49;7.10;71.20
18365;DHT22;9309;52.126;11.616;2024-01-30T09:25:16;6.80;73.00
18365;DHT22;9309;52.126;11.616;2024-01-30T09:27:44;6.60;74.30
18365;DHT22;9309;52.126;11.616;2024-01-30T09:30:11;6.50;75.00
18365;DHT22;9309;52.126;11.616;2024-01-30T09:35:40;6.50;76.20
18365;DHT22;9309;52.126;11.616;2024-01-30T09:38:07;6.50;75.70
18365;DHT22;9309;52.126;11.616;2024-01-30T09:40:33;6.50;76.00
18365;DHT22;9309;52.126;11.616;2024-01-30T09:43:00;6.60;76.00
18365;DHT22;9309;52.126;11.616;2024-01-30T09:45:27;6.90;75.10
18365;DHT22;9309;52.126;11.616;2024-01-30T09:47:53;7.40;73.70
18365;DHT22;9309;52.126;11.616;2024-01-30T09:50:20;7.60;72.60
18365;DHT22;9309;52.126;11.616;2024-01-30T09:52:49;7.60;72.90
18365;DHT22;9309;52.126;11.616;2024-01-30T09:55:16;8.20;71.00
18365;DHT22;9309;52.126;11.616;2024-01-30T09:57:42;8.10;70.30
18365;DHT22;9309;52.126;11.616;2024-01-30T10:00:10;8.20;70.90
18365;DHT22;9309;52.126;11.616;2024-01-30T10:02:40;8.20;70.60
18365;DHT22;9309;52.126;11.616;2024-01-30T10:05:08;8.40;70.30
18365;DHT22;9309;52.126;11.616;2024-01-30T10:07:35;8.10;70.60
18365;DHT22;9309;52.126;11.616;2024-01-30T10:10:04;8.10;71.40
18365;DHT22;9309;52.126;11.616;2024-01-30T10:12:31;8.50;70.70
18365;DHT22;9309;52.126;11.616;2024-01-30T10:14:58;8.70;68.80
18365;DHT22;9309;52.126;11.616;2024-01-30T10:17:25;8.90;69.20
18365;DHT22;9309;52.126;11.616;2024-01-30T10:19:52;9.40;66.10
18365;DHT22;9309;52.126;11.616;2024-01-30T10:22:18;8.90;67.00
18365;DHT22;9309;52.126;11.616;2024-01-30T10:24:45;8.50;69.10
18365;DHT22;9309;52.126;11.616;2024-01-30T10:27:13;8.40;69.50
18365;DHT22;9309;52.126;11.616;2024-01-30T10:29:40;8.30;69.50
18365;DHT22;9309;52.126;11.616;2024-01-30T10:32:06;8.40;70.20
18365;DHT22;9309;52.126;11.616;2024-01-30T10:34:33;8.40;69.80
18365;DHT22;9309;52.126;11.616;2024-01-30T10:37:04;8.70;69.60
18365;DHT22;9309;52.126;11.616;2024-01-30T10:39:34;9.10;67.60
18365;DHT22;9309;52.126;11.616;2024-01-30T10:42:04;9.10;66.90
18365;DHT22;9309;52.126;11.616;2024-01-30T10:44:36;9.20;66.30
18365;DHT22;9309;52.126;11.616;2024-01-30T10:47:03;9.10;67.10
18365;DHT22;9309;52.126;11.616;2024-01-30T10:49:33;9.00;67.70
18365;DHT22;9309;52.126;11.616;2024-01-30T10:51:59;8.70;68.10
18365;DHT22;9309;52.126;11.616;2024-01-30T10:54:26;8.50;69.40
18365;DHT22;9309;52.126;11.616;2024-01-30T10:56:53;8.70;68.90
18365;DHT22;9309;52.126;11.616;2024-01-30T10:59:20;8.70;68.40
18365;DHT22;9309;52.126;11.616;2024-01-30T11:01:50;8.50;69.20
18365;DHT22;9309;52.126;11.616;2024-01-30T11:04:17;8.60;69.70
18365;DHT22;9309;52.126;11.616;2024-01-30T11:06:44;8.50;69.50
18365;DHT22;9309;52.126;11.616;2024-01-30T11:09:11;8.60;69.80
18365;DHT22;9309;52.126;11.616;2024-01-30T11:11:50;8.80;69.50
18365;DHT22;9309;52.126;11.616;2024-01-30T11:14:22;8.90;68.40
18365;DHT22;9309;52.126;11.616;2024-01-30T11:16:49;9.20;67.90
18365;DHT22;9309;52.126;11.616;2024-01-30T11:19:17;9.00;67.60
18365;DHT22;9309;52.126;11.616;2024-01-30T11:21:49;8.80;68.60
18365;DHT22;9309;52.126;11.616;2024-01-30T11:24:19;8.50;69.70
18365;DHT22;9309;52.126;11.616;2024-01-30T11:26:46;8.40;70.30
18365;DHT22;9309;52.126;11.616;2024-01-30T11:29:13;8.50;70.20
18365;DHT22;9309;52.126;11.616;2024-01-30T11:31:40;8.70;70.00
18365;DHT22;9309;52.126;11.616;2024-01-30T11:34:06;8.90;69.40
18365;DHT22;9309;52.126;11.616;2024-01-30T11:36:39;8.90;69.70
18365;DHT22;9309;52.126;11.616;2024-01-30T11:39:10;9.00;69.60
18365;DHT22;9309;52.126;11.616;2024-01-30T11:41:37;9.00;69.40
18365;DHT22;9309;52.126;11.616;2024-01-30T11:44:04;8.90;69.50
18365;DHT22;9309;52.126;11.616;2024-01-30T11:46:31;8.90;69.90
18365;DHT22;9309;52.126;11.616;2024-01-30T11:48:58;9.00;70.30
18365;DHT22;9309;52.126;11.616;2024-01-30T11:51:25;9.30;69.20
18365;DHT22;9309;52.126;11.616;2024-01-30T11:53:53;9.30;68.60
18365;DHT22;9309;52.126;11.616;2024-01-30T11:56:19;9.40;68.90
18365;DHT22;9309;52.126;11.616;2024-01-30T11:58:46;9.70;67.90
18365;DHT22;9309;52.126;11.616;2024-01-30T12:01:13;9.70;67.50
18365;DHT22;9309;52.126;11.616;2024-01-30T12:03:39;9.40;68.50
18365;DHT22;9309;52.126;11.616;2024-01-30T12:06:06;9.40;69.00
18365;DHT22;9309;52.126;11.616;2024-01-30T12:08:32;9.40;69.30
18365;DHT22;9309;52.126;11.616;2024-01-30T12:11:00;9.40;69.70
18365;DHT22;9309;52.126;11.616;2024-01-30T12:13:30;9.50;69.70
18365;DHT22;9309;52.126;11.616;2024-01-30T12:15:57;9.60;69.00
18365;DHT22;9309;52.126;11.616;2024-01-30T12:18:23;9.90;69.30
18365;DHT22;9309;52.126;11.616;2024-01-30T12:20:56;10.30;67.40
18365;DHT22;9309;52.126;11.616;2024-01-30T12:23:23;10.20;67.60
18365;DHT22;9309;52.126;11.616;2024-01-30T12:25:51;10.10;68.00
18365;DHT22;9309;52.126;11.616;2024-01-30T12:28:19;10.20;67.20
18365;DHT22;9309;52.126;11.616;2024-01-30T12:30:45;10.20;67.20
18365;DHT22;9309;52.126;11.616;2024-01-30T12:33:15;9.90;68.10
18365;DHT22;9309;52.126;11.616;2024-01-30T12:35:45;9.80;69.00
18365;DHT22;9309;52.126;11.616;2024-01-30T12:38:11;10.00;68.90
18365;DHT22;9309;52.126;11.616;2024-01-30T12:40:38;10.30;67.40
18365;DHT22;9309;52.126;11.616;2024-01-30T12:43:04;10.40;67.10
18365;DHT22;9309;52.126;11.616;2024-01-30T12:45:32;10.30;67.60
18365;DHT22;9309;52.126;11.616;2024-01-30T12:47:59;10.30;67.70
18365;DHT22;9309;52.126;11.616;2024-01-30T12:50:25;10.30;67.80
18365;DHT22;9309;52.126;11.616;2024-01-30T12:52:52;10.20;67.90
18365;DHT22;9309;52.126;11.616;2024-01-30T12:55:18;10.30;67.80
18365;DHT22;9309;52.126;11.616;2024-01-30T12:57:45;10.40;66.80
18365;DHT22;9309;52.126;11.616;2024-01-30T13:00:11;10.50;67.00
18365;DHT22;9309;52.126;11.616;2024-01-30T13:02:39;10.70;67.10
18365;DHT22;9309;52.126;11.616;2024-01-30T13:05:07;11.10;65.40
18365;DHT22;9309;52.126;11.616;2024-01-30T13:07:34;11.50;63.70
18365;DHT22;9309;52.126;11.616;2024-01-30T13:10:01;11.70;63.00
18365;DHT22;9309;52.126;11.616;2024-01-30T13:12:29;11.00;65.00
18365;DHT22;9309;52.126;11.616;2024-01-30T13:14:57;11.20;64.70
18365;DHT22;9309;52.126;11.616;2024-01-30T13:17:26;11.50;64.00
18365;DHT22;9309;52.126;11.616;2024-01-30T13:19:54;11.70;63.30
18365;DHT22;9309;52.126;11.616;2024-01-30T13:22:20;11.60;63.90
18365;DHT22;9309;52.126;11.616;2024-01-30T13:24:47;11.50;64.60
18365;DHT22;9309;52.126;11.616;2024-01-30T13:27:13;11.80;63.50
18365;DHT22;9309;52.126;11.616;2024-01-30T13:29:40;12.00;62.80
18365;DHT22;9309;52.126;11.616;2024-01-30T13:32:06;12.00;62.80
18365;DHT22;9309;52.126;11.616;2024-01-30T13:34:33;12.10;62.70
18365;DHT22;9309;52.126;11.616;2024-01-30T13:37:01;12.20;62.10
18365;DHT22;9309;52.126;11.616;2024-01-30T13:39:27;12.30;61.70
18365;DHT22;9309;52.126;11.616;2024-01-30T13:41:54;12.30;61.50
18365;DHT22;9309;52.126;11.616;2024-01-30T13:44:21;12.40;61.40
18365;DHT22;9309;52.126;11.616;2024-01-30T13:46:47;12.50;60.90
18365;DHT22;9309;52.126;11.616;2024-01-30T13:49:13;12.40;61.40
18365;DHT22;9309;52.126;11.616;2024-01-30T13:51:40;12.40;61.20
18365;DHT22;9309;52.126;11.616;2024-01-30T13:54:08;12.40;61.40
18365;DHT22;9309;52.126;11.616;2024-01-30T13:56:35;12.40;61.40
18365;DHT22;9309;52.126;11.616;2024-01-30T13:59:01;12.30;61.70
18365;DHT22;9309;52.126;11.616;2024-01-30T14:01:30;12.20;62.20
18365;DHT22;9309;52.126;11.616;2024-01-30T14:03:57;12.00;62.70
18365;DHT22;9309;52.126;11.616;2024-01-30T14:06:23;11.90;63.30
18365;DHT22;9309;52.126;11.616;2024-01-30T14:08:50;11.70;63.80
18365;DHT22;9309;52.126;11.616;2024-01-30T14:11:17;11.50;64.60
18365;DHT22;9309;52.126;11.616;2024-01-30T14:13:44;11.50;65.00
18365;DHT22;9309;52.126;11.616;2024-01-30T14:16:10;11.50;65.00
18365;DHT22;9309;52.126;11.616;2024-01-30T14:18:37;11.50;65.40
18365;DHT22;9309;52.126;11.616;2024-01-30T14:21:04;11.40;66.30
18365;DHT22;9309;52.126;11.616;2024-01-30T14:23:32;11.80;66.00
18365;DHT22;9309;52.126;11.616;2024-01-30T14:25:58;12.00;63.90
18365;DHT22;9309;52.126;11.616;2024-01-30T14:28:26;12.00;63.70
18365;DHT22;9309;52.126;11.616;2024-01-30T14:30:53;11.90;63.90
18365;DHT22;9309;52.126;11.616;2024-01-30T14:33:19;11.80;64.40
18365;DHT22;9309;52.126;11.616;2024-01-30T14:35:46;11.60;64.90
18365;DHT22;9309;52.126;11.616;2024-01-30T14:38:12;11.50;65.70
18365;DHT22;9309;52.126;11.616;2024-01-30T14:40:39;11.30;66.40
18365;DHT22;9309;52.126;11.616;2024-01-30T14:43:05;10.80;68.50
18365;DHT22;9309;52.126;11.616;2024-01-30T14:45:33;10.80;68.60
18365;DHT22;9309;52.126;11.616;2024-01-30T14:48:00;10.70;69.00
18365;DHT22;9309;52.126;11.616;2024-01-30T14:50:27;10.60;69.30
18365;DHT22;9309;52.126;11.616;2024-01-30T14:52:54;10.40;70.60
18365;DHT22;9309;52.126;11.616;2024-01-30T14:55:20;10.30;70.50
18365;DHT22;9309;52.126;11.616;2024-01-30T14:57:47;10.30;70.60
18365;DHT22;9309;52.126;11.616;2024-01-30T15:00:15;10.40;70.10
18365;DHT22;9309;52.126;11.616;2024-01-30T15:02:43;10.40;70.20
18365;DHT22;9309;52.126;11.616;2024-01-30T15:05:09;10.30;70.20
18365;DHT22;9309;52.126;11.616;2024-01-30T15:07:36;10.10;71.70
18365;DHT22;9309;52.126;11.616;2024-01-30T15:10:05;10.00;72.10
18365;DHT22;9309;52.126;11.616;2024-01-30T15:12:32;9.90;72.30
18365;DHT22;9309;52.126;11.616;2024-01-30T15:14:59;9.70;73.90
18365;DHT22;9309;52.126;11.616;2024-01-30T15:17:25;9.40;75.50
18365;DHT22;9309;52.126;11.616;2024-01-30T15:19:53;9.20;76.60
18365;DHT22;9309;52.126;11.616;2024-01-30T15:22:20;9.30;75.70
18365;DHT22;9309;52.126;11.616;2024-01-30T15:24:46;9.40;75.50
18365;DHT22;9309;52.126;11.616;2024-01-30T15:27:13;9.40;75.40
18365;DHT22;9309;52.126;11.616;2024-01-30T15:29:39;9.40;75.70
18365;DHT22;9309;52.126;11.616;2024-01-30T15:32:06;9.40;75.40
18365;DHT22;9309;52.126;11.616;2024-01-30T15:34:32;9.30;75.50
18365;DHT22;9309;52.126;11.616;2024-01-30T15:37:00;9.30;76.20
18365;DHT22;9309;52.126;11.616;2024-01-30T15:39:28;9.10;76.80
18365;DHT22;9309;52.126;11.616;2024-01-30T15:41:55;9.10;77.10
18365;DHT22;9309;52.126;11.616;2024-01-30T15:44:23;9.10;76.80
18365;DHT22;9309;52.126;11.616;2024-01-30T15:46:50;8.90;78.00
18365;DHT22;9309;52.126;11.616;2024-01-30T15:49:16;8.90;78.00
18365;DHT22;9309;52.126;11.616;2024-01-30T15:51:43;8.90;77.50
18365;DHT22;9309;52.126;11.616;2024-01-30T15:54:11;8.90;77.30